Time;durP1;ratioP1;P1;durP2;ratioP2;P2;SDS_P1;SDS_P2;PMS_P1;PMS_P2;Temp;Humidity;BMP_temperature;BMP_pressure;BME280_temperature;BME280_humidity;BME280_pressure;Samples;Min_cycle;Max_cycle;Signal;HPM_P1;HPM_P2
2022/10/18 00:02:13;;;;;;;7.83;4.70;;;19.10;99.90;;;;;;5017484;28;20246;-65
2022/10/18 00:04:39;;;;;;;11.10;5.10;;;19.10;99.90;;;;;;5015589;28;20240;-65
2022/10/18 00:07:04;;;;;;;13.30;5.57;;;19.00;99.90;;;;;;5018868;28;20192;-65
2022/10/18 00:09:30;;;;;;;8.27;5.00;;;19.10;99.90;;;;;;5013209;28;20205;-65
2022/10/18 00:11:56;;;;;;;5.43;4.70;;;19.10;99.90;;;;;;5018905;28;20265;-66
2022/10/18 00:14:22;;;;;;;16.63;5.00;;;19.10;99.90;;;;;;5011978;28;20272;-66
2022/10/18 00:16:47;;;;;;;9.47;5.10;;;19.20;99.90;;;;;;5016456;28;20196;-66
2022/10/18 00:19:13;;;;;;;6.90;4.70;;;19.20;99.90;;;;;;5019354;28;20181;-66
2022/10/18 00:21:38;;;;;;;11.00;6.27;;;19.20;99.90;;;;;;5024105;28;20195;-66
2022/10/18 00:24:04;;;;;;;9.80;5.00;;;19.20;99.90;;;;;;5016697;28;20242;-66
2022/10/18 00:26:30;;;;;;;13.27;4.77;;;19.10;99.90;;;;;;5018088;28;20180;-64
2022/10/18 00:29:02;;;;;;;6.20;4.70;;;19.10;99.90;;;;;;5020766;28;20438;-64
2022/10/18 00:31:33;;;;;;;6.80;5.37;;;19.00;99.90;;;;;;5021267;28;20462;-64
2022/10/18 00:34:02;;;;;;;8.07;5.40;;;19.10;99.90;;;;;;5019379;28;20520;-64
2022/10/18 00:36:30;;;;;;;6.10;4.80;;;19.10;99.90;;;;;;5015285;28;20944;-64
2022/10/18 00:38:56;;;;;;;9.80;4.60;;;19.10;99.90;;;;;;5021752;28;20443;-64
2022/10/18 00:41:25;;;;;;;10.00;4.77;;;19.10;99.90;;;;;;5019923;28;21826;-64
2022/10/18 00:43:50;;;;;;;7.83;4.63;;;19.10;99.90;;;;;;5015601;28;20448;-64
2022/10/18 00:46:16;;;;;;;7.70;4.73;;;19.10;99.90;;;;;;5019895;28;20866;-65
2022/10/18 00:48:42;;;;;;;9.33;4.60;;;19.10;99.90;;;;;;5020932;28;20189;-64
2022/10/18 00:51:08;;;;;;;10.30;4.97;;;19.10;99.90;;;;;;5022687;28;20212;-64
2022/10/18 00:53:34;;;;;;;5.80;4.70;;;19.10;99.90;;;;;;5006153;28;21056;-64
2022/10/18 00:55:59;;;;;;;9.63;5.37;;;19.10;99.90;;;;;;5017098;28;20521;-65
2022/10/18 00:58:25;;;;;;;9.17;4.60;;;19.10;99.90;;;;;;5010899;28;20963;-65
2022/10/18 01:00:51;;;;;;;9.17;4.30;;;19.10;99.90;;;;;;5019773;28;20215;-65
2022/10/18 01:03:16;;;;;;;5.70;4.50;;;19.10;99.90;;;;;;5018116;28;20461;-65
2022/10/18 01:05:45;;;;;;;11.87;5.80;;;19.10;99.90;;;;;;5019621;28;20294;-65
2022/10/18 01:08:48;;;;;;;7.03;4.47;;;19.10;99.90;;;;;;5018975;28;20185;-65
2022/10/18 01:11:31;;;;;;;10.40;4.80;;;19.10;99.90;;;;;;5016685;28;20467;-64
2022/10/18 01:14:26;;;;;;;8.40;4.83;;;19.10;99.90;;;;;;5020284;28;20979;-65
2022/10/18 01:17:00;;;;;;;5.57;4.60;;;19.00;99.90;;;;;;5019555;28;20439;-65
2022/10/18 01:20:04;;;;;;;8.17;4.50;;;19.00;99.90;;;;;;5019173;28;20526;-65
2022/10/18 01:22:38;;;;;;;7.50;4.80;;;19.10;99.90;;;;;;5020811;28;20497;-65
2022/10/18 01:25:25;;;;;;;5.70;5.10;;;19.10;99.90;;;;;;5019261;28;20426;-65
2022/10/18 01:28:27;;;;;;;17.23;4.47;;;19.10;99.90;;;;;;5020234;28;20435;-65
2022/10/18 01:31:02;;;;;;;5.60;4.87;;;19.00;99.90;;;;;;5008542;28;20462;-65
2022/10/18 01:33:30;;;;;;;7.20;5.03;;;19.00;99.90;;;;;;5018057;28;20487;-65
2022/10/18 01:36:07;;;;;;;8.70;4.77;;;19.00;99.90;;;;;;5020389;28;20461;-65
2022/10/18 01:38:35;;;;;;;8.50;4.93;;;19.10;99.90;;;;;;5002636;28;20445;-65
2022/10/18 01:41:03;;;;;;;7.83;5.53;;;19.10;99.90;;;;;;5010829;28;20696;-65
2022/10/18 01:43:32;;;;;;;11.60;5.47;;;19.10;99.90;;;;;;5017548;28;20439;-65
2022/10/18 01:45:59;;;;;;;8.13;4.70;;;19.10;99.90;;;;;;5016166;28;20462;-66
2022/10/18 01:48:25;;;;;;;8.93;4.60;;;19.10;99.90;;;;;;5014488;28;20501;-65
2022/10/18 01:50:52;;;;;;;7.73;5.03;;;19.10;99.90;;;;;;5019033;28;20474;-65
2022/10/18 01:53:36;;;;;;;8.63;5.23;;;19.10;99.90;;;;;;5016486;28;20470;-65
2022/10/18 01:56:15;;;;;;;11.70;5.13;;;19.10;99.90;;;;;;5016078;28;20423;-65
2022/10/18 01:59:01;;;;;;;11.43;5.63;;;19.10;99.90;;;;;;5022420;28;20510;-65
2022/10/18 02:01:40;;;;;;;7.97;4.80;;;19.10;99.90;;;;;;5017069;28;20457;-65
2022/10/18 02:04:31;;;;;;;8.83;5.33;;;19.10;99.90;;;;;;5016449;28;20434;-65
2022/10/18 02:07:15;;;;;;;6.77;6.10;;;19.10;99.90;;;;;;5010005;28;20538;-65
2022/10/18 02:10:03;;;;;;;7.13;4.63;;;19.00;99.90;;;;;;5012424;28;20534;-65
2022/10/18 02:12:31;;;;;;;10.20;5.50;;;19.00;99.90;;;;;;5012216;28;20458;-65
2022/10/18 02:14:58;;;;;;;12.50;5.87;;;19.00;99.90;;;;;;5014274;28;20427;-65
2022/10/18 02:17:28;;;;;;;9.67;5.27;;;19.00;99.90;;;;;;5017674;28;20445;-65
2022/10/18 02:19:55;;;;;;;8.20;5.70;;;19.00;99.90;;;;;;5002728;28;20707;-65
2022/10/18 02:22:26;;;;;;;8.77;4.93;;;19.00;99.90;;;;;;5011764;28;20617;-66
2022/10/18 02:24:54;;;;;;;12.77;5.30;;;19.00;99.90;;;;;;5020031;28;20528;-65
2022/10/18 02:27:21;;;;;;;5.30;4.67;;;19.00;99.90;;;;;;5016929;28;20447;-65
2022/10/18 02:29:47;;;;;;;6.00;5.30;;;18.90;99.90;;;;;;5008531;28;20447;-65
2022/10/18 02:32:18;;;;;;;9.13;5.50;;;18.90;99.90;;;;;;5017219;28;20498;-65
2022/10/18 02:35:00;;;;;;;8.97;5.30;;;18.90;99.90;;;;;;5018006;28;20506;-65
2022/10/18 02:37:32;;;;;;;8.17;4.77;;;18.80;99.90;;;;;;5003170;28;20722;-66
2022/10/18 02:39:58;;;;;;;9.53;6.20;;;18.80;99.90;;;;;;5018408;28;20442;-65
2022/10/18 02:42:23;;;;;;;8.57;5.10;;;18.80;99.90;;;;;;5024218;28;20443;-65
2022/10/18 02:44:49;;;;;;;7.63;5.00;;;18.80;99.90;;;;;;5019353;28;20265;-65
2022/10/18 02:47:14;;;;;;;8.43;5.40;;;18.80;99.90;;;;;;5020143;28;20180;-66
2022/10/18 02:49:40;;;;;;;17.27;5.27;;;18.80;99.90;;;;;;5019623;28;20201;-66
2022/10/18 02:52:05;;;;;;;6.80;4.80;;;18.80;99.90;;;;;;5017714;28;20204;-66
2022/10/18 02:54:31;;;;;;;7.30;5.20;;;18.80;99.90;;;;;;5019104;28;20709;-65
2022/10/18 02:56:57;;;;;;;9.10;4.97;;;18.80;99.90;;;;;;5019864;28;20185;-65
2022/10/18 02:59:22;;;;;;;9.90;5.00;;;18.80;99.90;;;;;;5019210;28;20207;-65
2022/10/18 03:01:48;;;;;;;7.47;5.27;;;18.70;99.90;;;;;;5011357;28;20236;-66
2022/10/18 03:04:14;;;;;;;6.70;5.37;;;18.70;99.90;;;;;;5018208;28;20957;-66
2022/10/18 03:06:39;;;;;;;5.57;4.90;;;18.70;99.90;;;;;;5017904;28;20188;-65
2022/10/18 03:09:05;;;;;;;10.07;5.10;;;18.70;99.90;;;;;;5016405;28;21197;-65
2022/10/18 03:11:31;;;;;;;8.00;5.03;;;18.70;99.90;;;;;;5020327;28;20215;-65
2022/10/18 03:13:57;;;;;;;6.87;4.70;;;18.70;99.90;;;;;;5000875;28;20983;-65
2022/10/18 03:16:23;;;;;;;12.13;5.10;;;18.70;99.90;;;;;;5018845;28;20435;-65
2022/10/18 03:18:48;;;;;;;9.10;5.13;;;18.70;99.90;;;;;;5021462;28;20658;-66
2022/10/18 03:21:14;;;;;;;10.30;5.10;;;18.70;99.90;;;;;;5019724;28;20180;-65
2022/10/18 03:23:41;;;;;;;7.60;5.10;;;18.70;99.90;;;;;;5020027;28;20222;-65
2022/10/18 03:26:06;;;;;;;9.60;5.50;;;18.70;99.90;;;;;;5023819;28;20187;-65
2022/10/18 03:28:32;;;;;;;9.13;4.77;;;18.70;99.90;;;;;;5021023;28;20999;-65
2022/10/18 03:31:02;;;;;;;6.90;4.67;;;18.70;99.90;;;;;;5017276;28;20295;-65
2022/10/18 03:33:29;;;;;;;6.33;4.80;;;18.70;99.90;;;;;;5020077;28;20202;-65
2022/10/18 03:35:54;;;;;;;8.80;5.30;;;18.70;99.90;;;;;;5007507;28;20472;-65
2022/10/18 03:38:20;;;;;;;7.93;4.90;;;18.60;99.90;;;;;;5016620;28;20467;-65
2022/10/18 03:40:45;;;;;;;5.37;4.60;;;18.60;99.90;;;;;;5015405;28;20193;-65
2022/10/18 03:43:11;;;;;;;5.70;4.90;;;18.60;99.90;;;;;;5017880;28;20212;-66
2022/10/18 03:45:36;;;;;;;8.50;4.53;;;18.60;99.90;;;;;;5017436;28;20281;-65
2022/10/18 03:48:02;;;;;;;8.97;5.00;;;18.60;99.90;;;;;;5019536;28;20267;-65
2022/10/18 03:50:28;;;;;;;6.30;5.67;;;18.60;99.90;;;;;;5019887;28;20189;-66
2022/10/18 03:52:54;;;;;;;5.77;5.13;;;18.60;99.90;;;;;;5020709;28;20796;-66
2022/10/18 03:55:20;;;;;;;7.13;6.00;;;18.60;99.90;;;;;;5016280;28;20260;-63
2022/10/18 03:57:45;;;;;;;10.93;5.00;;;18.60;99.90;;;;;;5019503;28;20435;-66
2022/10/18 04:00:11;;;;;;;8.90;4.20;;;18.60;99.90;;;;;;5017603;28;20189;-65
2022/10/18 04:02:37;;;;;;;12.40;7.40;;;18.60;99.90;;;;;;5020091;28;20251;-66
2022/10/18 04:05:02;;;;;;;8.20;4.73;;;18.60;99.90;;;;;;5022741;28;20455;-66
2022/10/18 04:07:28;;;;;;;6.47;4.57;;;18.60;99.90;;;;;;5005721;28;20211;-66
2022/10/18 04:09:54;;;;;;;5.87;4.27;;;18.60;99.90;;;;;;5015793;28;20223;-66
2022/10/18 04:12:19;;;;;;;9.70;5.13;;;18.60;99.90;;;;;;5008643;28;20805;-65
2022/10/18 04:14:45;;;;;;;11.60;5.00;;;18.50;99.90;;;;;;5016283;28;20257;-63
2022/10/18 04:17:10;;;;;;;7.70;4.60;;;18.50;99.90;;;;;;5019797;28;20250;-66
2022/10/18 04:19:36;;;;;;;11.83;5.33;;;18.40;99.90;;;;;;5011583;28;20255;-66
2022/10/18 04:22:01;;;;;;;5.43;4.63;;;18.40;99.90;;;;;;5019802;28;20200;-63
2022/10/18 04:24:27;;;;;;;5.70;4.70;;;18.50;99.90;;;;;;5018144;28;20215;-66
2022/10/18 04:26:52;;;;;;;5.47;4.87;;;18.50;99.90;;;;;;5018645;28;20258;-65
2022/10/18 04:29:18;;;;;;;7.07;4.80;;;18.50;99.90;;;;;;5019135;28;20184;-64
2022/10/18 04:31:44;;;;;;;10.53;5.50;;;18.50;99.90;;;;;;5020619;28;20216;-65
2022/10/18 04:34:10;;;;;;;10.53;5.60;;;18.50;99.90;;;;;;5001137;28;20180;-65
2022/10/18 04:36:36;;;;;;;8.70;5.33;;;18.50;99.90;;;;;;5019685;28;20227;-65
2022/10/18 04:39:01;;;;;;;15.97;5.57;;;18.50;99.90;;;;;;5019589;28;20435;-65
2022/10/18 04:41:27;;;;;;;9.27;5.03;;;18.50;99.90;;;;;;5013811;28;20200;-65
2022/10/18 04:43:52;;;;;;;8.40;4.97;;;18.60;99.90;;;;;;5019914;28;20264;-65
2022/10/18 04:46:18;;;;;;;8.40;5.30;;;18.60;99.90;;;;;;5001003;28;20208;-65
2022/10/18 04:48:43;;;;;;;11.07;4.73;;;18.60;99.90;;;;;;5019821;28;20196;-65
2022/10/18 04:51:09;;;;;;;11.17;5.77;;;18.60;99.90;;;;;;5018870;28;20200;-65
2022/10/18 04:53:34;;;;;;;8.00;5.63;;;18.60;99.90;;;;;;5020933;28;20568;-65
2022/10/18 04:56:00;;;;;;;9.03;5.73;;;18.50;99.90;;;;;;5015525;28;20188;-65
2022/10/18 04:58:26;;;;;;;7.67;4.80;;;18.50;99.90;;;;;;5016527;28;20185;-64
2022/10/18 05:00:51;;;;;;;6.27;5.60;;;18.50;99.90;;;;;;5017392;28;20191;-64
2022/10/18 05:03:17;;;;;;;9.07;6.00;;;18.50;99.90;;;;;;5014302;28;20247;-65
2022/10/18 05:05:44;;;;;;;8.47;5.20;;;18.50;99.90;;;;;;5017991;28;20263;-65
2022/10/18 05:08:11;;;;;;;9.60;5.23;;;18.40;99.90;;;;;;5006621;28;20474;-65
2022/10/18 05:10:36;;;;;;;10.13;5.17;;;18.40;99.90;;;;;;5015221;28;20975;-65
2022/10/18 05:13:02;;;;;;;7.13;5.40;;;18.40;99.90;;;;;;5024457;28;20470;-65
2022/10/18 05:15:28;;;;;;;9.07;5.70;;;18.40;99.90;;;;;;5024335;28;20184;-65
2022/10/18 05:17:53;;;;;;;8.97;5.43;;;18.40;99.90;;;;;;5017022;28;20181;-65
2022/10/18 05:20:19;;;;;;;7.67;5.43;;;18.40;99.90;;;;;;5021930;28;20690;-65
2022/10/18 05:22:44;;;;;;;10.07;5.80;;;18.40;99.90;;;;;;5018131;28;20212;-65
2022/10/18 05:25:10;;;;;;;7.13;4.67;;;18.40;99.90;;;;;;5023082;28;20540;-63
2022/10/18 05:27:35;;;;;;;7.40;6.10;;;18.40;99.90;;;;;;5020342;28;20700;-64
2022/10/18 05:30:01;;;;;;;7.30;4.93;;;18.40;99.90;;;;;;5015729;28;20689;-65
2022/10/18 05:32:26;;;;;;;6.70;4.70;;;18.40;99.90;;;;;;5019026;28;20287;-65
2022/10/18 05:34:52;;;;;;;14.20;5.20;;;18.40;99.90;;;;;;5005513;28;20188;-65
2022/10/18 05:37:18;;;;;;;10.63;5.40;;;18.40;99.90;;;;;;5019069;28;20188;-65
2022/10/18 05:39:43;;;;;;;6.00;5.03;;;18.40;99.90;;;;;;5010495;28;20745;-65
2022/10/18 05:42:09;;;;;;;5.93;4.83;;;18.30;99.90;;;;;;5015342;28;20208;-66
2022/10/18 05:44:34;;;;;;;7.80;4.40;;;18.40;99.90;;;;;;5017644;28;20181;-65
2022/10/18 05:47:00;;;;;;;11.30;5.37;;;18.40;99.90;;;;;;5019948;28;20623;-65
2022/10/18 05:49:26;;;;;;;11.97;5.43;;;18.40;99.90;;;;;;5019569;28;20216;-65
2022/10/18 05:51:51;;;;;;;10.20;5.60;;;18.40;99.90;;;;;;5014602;28;20436;-65
2022/10/18 05:54:19;;;;;;;12.20;5.50;;;18.30;99.90;;;;;;5020641;28;20195;-65
2022/10/18 05:56:45;;;;;;;7.17;5.73;;;18.30;99.90;;;;;;5018758;28;20180;-66
2022/10/18 05:59:11;;;;;;;13.60;5.40;;;18.30;99.90;;;;;;5000749;28;20436;-65
2022/10/18 06:01:37;;;;;;;8.23;5.00;;;18.40;99.90;;;;;;5011738;28;20216;-65
2022/10/18 06:04:03;;;;;;;8.10;5.20;;;18.40;99.90;;;;;;5014626;28;20185;-65
2022/10/18 06:06:30;;;;;;;10.73;6.00;;;18.30;99.90;;;;;;5007546;28;20446;-66
2022/10/18 06:08:56;;;;;;;10.83;5.97;;;18.30;99.90;;;;;;5018479;28;20923;-65
2022/10/18 06:11:23;;;;;;;10.03;6.73;;;18.30;99.90;;;;;;5016864;28;20975;-65
2022/10/18 06:13:50;;;;;;;10.20;7.20;;;18.40;99.90;;;;;;5018912;28;20434;-65
2022/10/18 06:16:19;;;;;;;9.40;6.07;;;18.40;99.90;;;;;;5016230;28;20469;-66
2022/10/18 06:18:50;;;;;;;11.57;6.70;;;18.40;99.90;;;;;;5014510;28;20843;-65
2022/10/18 06:21:17;;;;;;;15.93;5.90;;;18.40;99.90;;;;;;5022744;28;20466;-65
2022/10/18 06:23:42;;;;;;;7.87;6.50;;;18.40;99.90;;;;;;5014957;28;20452;-65
2022/10/18 06:26:10;;;;;;;11.67;6.80;;;18.30;99.90;;;;;;5000649;28;21096;-65
2022/10/18 06:28:36;;;;;;;10.60;6.07;;;18.40;99.90;;;;;;5013937;28;20201;-66
2022/10/18 06:31:03;;;;;;;10.67;5.77;;;18.50;99.90;;;;;;5020568;28;20470;-65
2022/10/18 06:33:33;;;;;;;9.23;5.97;;;18.60;99.90;;;;;;5018715;28;21049;-66
2022/10/18 06:36:05;;;;;;;7.67;5.90;;;18.50;99.90;;;;;;5021120;28;20449;-68
2022/10/18 06:38:31;;;;;;;6.83;6.03;;;18.40;99.90;;;;;;5015357;28;21302;-68
2022/10/18 06:40:57;;;;;;;12.73;7.00;;;18.30;99.90;;;;;;5012138;28;20450;-68
2022/10/18 06:43:23;;;;;;;8.17;6.20;;;18.30;99.90;;;;;;5014277;28;20532;-68
2022/10/18 06:45:49;;;;;;;9.37;5.60;;;18.40;99.90;;;;;;5008704;28;20562;-68
2022/10/18 06:48:16;;;;;;;6.60;5.73;;;18.40;99.90;;;;;;5013921;28;20534;-67
2022/10/18 06:50:41;;;;;;;9.80;7.60;;;18.40;99.90;;;;;;5013183;28;20683;-68
2022/10/18 06:53:07;;;;;;;10.83;6.83;;;18.30;99.90;;;;;;5015645;28;20542;-68
2022/10/18 06:55:34;;;;;;;9.67;6.87;;;18.40;99.90;;;;;;5016458;28;20606;-68
2022/10/18 06:58:00;;;;;;;9.93;6.10;;;18.40;99.90;;;;;;5013982;28;20436;-68
2022/10/18 07:00:26;;;;;;;9.20;6.00;;;18.30;99.90;;;;;;5015137;28;20439;-69
2022/10/18 07:02:51;;;;;;;13.50;7.00;;;18.30;99.90;;;;;;5010348;28;20555;-68
2022/10/18 07:05:17;;;;;;;12.27;6.77;;;18.40;99.90;;;;;;5011068;28;20192;-67
2022/10/18 07:07:43;;;;;;;9.40;6.20;;;18.40;99.90;;;;;;5013466;28;20180;-67
2022/10/18 07:10:08;;;;;;;10.57;6.70;;;18.40;99.90;;;;;;4998294;28;20469;-67
2022/10/18 07:12:34;;;;;;;10.20;6.50;;;18.50;99.90;;;;;;5015910;28;20204;-68
2022/10/18 07:15:00;;;;;;;9.10;6.00;;;18.50;99.90;;;;;;5016269;28;20184;-68
2022/10/18 07:17:25;;;;;;;10.90;6.47;;;18.40;99.90;;;;;;5011419;28;20173;-68
2022/10/18 07:19:51;;;;;;;10.00;6.30;;;18.40;99.90;;;;;;5015068;28;20843;-65
2022/10/18 07:22:17;;;;;;;14.10;6.07;;;18.50;99.90;;;;;;5016782;28;20200;-68
2022/10/18 07:24:42;;;;;;;11.40;6.10;;;18.50;99.90;;;;;;5017259;28;20347;-68
2022/10/18 07:27:08;;;;;;;6.77;6.07;;;18.50;99.90;;;;;;5012580;28;20184;-68
2022/10/18 07:29:33;;;;;;;10.27;6.63;;;18.50;99.90;;;;;;5011587;28;20209;-68
2022/10/18 07:31:59;;;;;;;8.80;6.37;;;18.60;99.90;;;;;;5013746;28;20184;-67
2022/10/18 07:34:24;;;;;;;11.27;6.67;;;18.60;99.90;;;;;;5011066;28;20188;-67
2022/10/18 07:36:50;;;;;;;7.97;6.43;;;18.60;99.90;;;;;;5000889;28;20208;-68
2022/10/18 07:39:15;;;;;;;10.10;6.27;;;18.60;99.90;;;;;;5011359;28;20605;-67
2022/10/18 07:41:41;;;;;;;8.37;6.40;;;18.60;99.90;;;;;;5011948;28;20695;-68
2022/10/18 07:44:07;;;;;;;15.37;7.10;;;18.70;99.90;;;;;;5014677;28;20180;-68
2022/10/18 07:46:32;;;;;;;14.53;6.97;;;18.60;99.90;;;;;;5012847;28;20231;-67
2022/10/18 07:48:58;;;;;;;7.70;6.33;;;18.60;99.90;;;;;;4999374;28;20219;-67
2022/10/18 07:51:25;;;;;;;10.00;6.20;;;18.60;99.90;;;;;;5015461;28;20385;-67
2022/10/18 07:53:50;;;;;;;12.03;6.50;;;18.70;99.90;;;;;;5014394;28;20687;-68
2022/10/18 07:56:20;;;;;;;9.80;6.40;;;18.70;99.90;;;;;;5013451;28;20440;-68
2022/10/18 07:58:51;;;;;;;10.37;6.27;;;18.60;99.90;;;;;;5012774;28;20580;-66
2022/10/18 08:01:18;;;;;;;10.93;6.47;;;18.60;99.90;;;;;;5020059;28;20508;-66
2022/10/18 08:03:44;;;;;;;10.33;5.77;;;18.70;99.90;;;;;;5015072;28;20515;-66
2022/10/18 08:06:11;;;;;;;13.60;6.40;;;18.70;99.90;;;;;;4998951;28;20445;-66
2022/10/18 08:08:38;;;;;;;7.70;6.00;;;18.70;99.90;;;;;;5013059;28;20605;-66
2022/10/18 08:11:09;;;;;;;10.50;7.33;;;18.70;99.90;;;;;;5001107;28;20494;-65
2022/10/18 08:13:35;;;;;;;11.37;6.70;;;18.70;99.90;;;;;;5012764;28;20438;-66
2022/10/18 08:16:07;;;;;;;18.40;7.53;;;18.70;99.90;;;;;;5016795;28;20439;-65
2022/10/18 08:18:32;;;;;;;12.87;7.20;;;18.60;99.90;;;;;;5013097;28;20196;-66
2022/10/18 08:21:00;;;;;;;10.83;6.73;;;18.60;99.90;;;;;;5015672;28;20443;-66
2022/10/18 08:23:25;;;;;;;11.67;7.50;;;18.60;99.90;;;;;;5000262;28;20189;-66
2022/10/18 08:25:51;;;;;;;8.40;6.60;;;18.70;99.90;;;;;;5014655;28;20617;-66
2022/10/18 08:28:17;;;;;;;17.40;9.43;;;18.80;99.90;;;;;;5015166;28;20264;-67
2022/10/18 08:30:43;;;;;;;8.60;5.77;;;19.00;99.90;;;;;;4996749;28;20296;-66
2022/10/18 08:33:08;;;;;;;11.33;6.80;;;19.00;99.90;;;;;;5015256;28;20889;-67
2022/10/18 08:35:34;;;;;;;10.93;6.60;;;19.10;99.90;;;;;;5019540;28;20683;-66
2022/10/18 08:38:00;;;;;;;11.67;6.60;;;19.10;99.90;;;;;;5018061;28;21153;-67
2022/10/18 08:40:26;;;;;;;8.80;6.70;;;19.20;99.90;;;;;;5011686;28;20197;-65
2022/10/18 08:42:57;;;;;;;7.10;6.30;;;19.30;99.90;;;;;;5013888;28;20215;-67
2022/10/18 08:45:25;;;;;;;9.90;6.10;;;19.40;99.90;;;;;;5021643;28;20446;-67
2022/10/18 08:47:55;;;;;;;9.17;6.33;;;19.30;99.90;;;;;;5017925;28;20447;-67
2022/10/18 08:50:25;;;;;;;11.07;6.50;;;19.40;99.90;;;;;;5017956;28;20462;-68
2022/10/18 08:53:00;;;;;;;8.07;6.40;;;19.40;99.90;;;;;;5016391;28;20475;-67
2022/10/18 08:55:35;;;;;;;6.77;5.63;;;19.50;99.90;;;;;;5017777;28;20472;-68
2022/10/18 08:58:04;;;;;;;9.13;5.20;;;19.70;99.90;;;;;;5013984;28;20439;-67
2022/10/18 09:00:34;;;;;;;6.07;5.17;;;19.80;99.90;;;;;;5013469;28;20462;-65
2022/10/18 09:03:32;;;;;;;6.43;5.70;;;19.90;99.90;;;;;;5018841;28;20455;-68
2022/10/18 09:06:17;;;;;;;9.43;6.50;;;19.90;99.90;;;;;;5016895;28;20443;-68
2022/10/18 09:09:01;;;;;;;7.73;5.63;;;19.90;99.90;;;;;;5021570;28;20438;-65
2022/10/18 09:11:39;;;;;;;7.43;4.43;;;20.00;99.90;;;;;;5019276;28;20505;-65
2022/10/18 09:14:33;;;;;;;9.73;5.00;;;20.00;99.90;;;;;;5013787;28;20972;-66
2022/10/18 09:17:05;;;;;;;6.00;4.60;;;20.00;99.90;;;;;;5018478;28;20468;-65
2022/10/18 09:19:34;;;;;;;6.40;5.30;;;20.00;99.90;;;;;;5015302;28;20442;-67
2022/10/18 09:22:19;;;;;;;6.70;4.60;;;20.10;99.90;;;;;;5016900;28;20456;-66
2022/10/18 09:25:15;;;;;;;8.27;4.77;;;20.10;99.90;;;;;;5019109;28;20569;-66
2022/10/18 09:27:54;;;;;;;8.17;7.07;;;20.10;99.90;;;;;;5017700;28;20497;-66
2022/10/18 09:30:44;;;;;;;7.87;6.27;;;20.10;99.90;;;;;;5018194;28;20458;-66
2022/10/18 09:33:24;;;;;;;7.93;4.80;;;20.10;99.90;;;;;;5004888;28;20541;-66
2022/10/18 09:35:55;;;;;;;9.10;5.40;;;20.10;99.90;;;;;;5017674;28;20820;-66
2022/10/18 09:38:26;;;;;;;8.63;5.60;;;20.20;99.90;;;;;;5021441;28;20917;-67
2022/10/18 09:41:01;;;;;;;8.23;6.00;;;20.20;99.90;;;;;;5017877;28;20458;-66
2022/10/18 09:43:47;;;;;;;15.60;5.10;;;20.30;99.90;;;;;;5014451;28;20449;-67
2022/10/18 09:46:15;;;;;;;9.27;5.77;;;20.50;99.90;;;;;;5018003;28;20440;-65
2022/10/18 09:48:57;;;;;;;11.63;6.13;;;20.40;99.90;;;;;;5004383;28;20454;-66
2022/10/18 09:51:25;;;;;;;6.03;5.20;;;20.50;99.90;;;;;;5010029;28;20565;-66
2022/10/18 09:54:10;;;;;;;12.73;5.70;;;20.50;99.90;;;;;;5017991;28;20451;-66
2022/10/18 09:56:42;;;;;;;5.87;4.73;;;20.40;99.90;;;;;;5016810;28;20789;-66
2022/10/18 09:59:37;;;;;;;7.93;5.07;;;20.40;99.90;;;;;;5016828;28;22034;-66
2022/10/18 10:02:04;;;;;;;6.20;4.83;;;20.40;99.90;;;;;;5018130;28;20490;-66
2022/10/18 10:04:30;;;;;;;7.60;4.60;;;20.40;99.90;;;;;;5015873;28;20814;-66
2022/10/18 10:06:59;;;;;;;10.87;5.30;;;20.40;99.90;;;;;;5018885;28;20551;-66
2022/10/18 10:09:34;;;;;;;7.70;4.97;;;20.40;99.90;;;;;;5014738;28;20184;-67
2022/10/18 10:12:01;;;;;;;7.30;6.47;;;20.40;99.90;;;;;;5016574;28;20446;-67
2022/10/18 10:14:29;;;;;;;5.93;5.33;;;20.50;99.90;;;;;;5016183;28;20420;-66
2022/10/18 10:16:56;;;;;;;6.60;5.20;;;20.50;99.90;;;;;;5018670;28;20444;-67
2022/10/18 10:19:38;;;;;;;13.03;4.90;;;20.50;99.90;;;;;;5018709;28;20431;-66
2022/10/18 10:22:07;;;;;;;9.47;4.60;;;20.50;99.90;;;;;;5014981;28;20450;-66
2022/10/18 10:24:52;;;;;;;8.20;5.13;;;20.50;99.90;;;;;;5016609;28;20432;-65
2022/10/18 10:27:22;;;;;;;9.97;5.30;;;20.50;99.90;;;;;;5014808;28;20438;-65
2022/10/18 10:29:53;;;;;;;6.43;4.93;;;20.50;99.90;;;;;;5015990;28;21399;-66
2022/10/18 10:32:21;;;;;;;6.23;5.00;;;20.70;99.90;;;;;;5010406;28;20459;-66
2022/10/18 10:34:47;;;;;;;14.20;10.67;;;20.70;99.90;;;;;;5011863;28;20511;-66
2022/10/18 10:37:34;;;;;;;13.23;4.90;;;20.80;99.90;;;;;;5012527;28;20967;-65
2022/10/18 10:40:09;;;;;;;7.67;5.13;;;21.00;99.90;;;;;;5015113;28;20207;-65
2022/10/18 10:42:37;;;;;;;10.10;5.47;;;21.10;99.90;;;;;;4999501;28;20995;-65
2022/10/18 10:45:03;;;;;;;8.27;5.03;;;21.10;99.90;;;;;;5017244;28;20447;-65
2022/10/18 10:47:32;;;;;;;7.17;4.80;;;21.10;99.90;;;;;;5012170;28;20432;-65
2022/10/18 10:49:57;;;;;;;4.60;4.20;;;21.10;99.90;;;;;;5007446;28;20517;-66
2022/10/18 10:52:28;;;;;;;4.90;4.30;;;21.20;99.90;;;;;;5012537;28;20456;-65
2022/10/18 10:54:56;;;;;;;15.00;5.40;;;21.30;99.90;;;;;;5018376;28;20207;-66
2022/10/18 10:57:28;;;;;;;8.70;4.73;;;21.40;99.90;;;;;;5018118;28;20431;-66
2022/10/18 10:59:56;;;;;;;5.73;4.03;;;21.40;99.90;;;;;;5019537;28;20439;-64
2022/10/18 11:02:33;;;;;;;5.40;4.00;;;21.40;99.90;;;;;;5019119;28;20458;-66
2022/10/18 11:05:25;;;;;;;5.30;3.90;;;21.50;99.90;;;;;;5018221;28;21006;-66
2022/10/18 11:07:55;;;;;;;8.67;4.63;;;21.50;99.90;;;;;;5015641;28;20465;-65
2022/10/18 11:10:27;;;;;;;6.50;4.50;;;21.60;99.90;;;;;;5019068;28;20469;-66
2022/10/18 11:13:23;;;;;;;5.63;3.83;;;21.70;99.90;;;;;;5017429;28;20593;-65
2022/10/18 11:15:55;;;;;;;6.70;4.07;;;21.90;99.90;;;;;;5015279;28;20532;-66
2022/10/18 11:18:28;;;;;;;5.40;3.70;;;22.10;99.90;;;;;;5015254;28;20444;-64
2022/10/18 11:21:00;;;;;;;9.10;4.77;;;22.30;99.90;;;;;;5009901;28;20470;-65
2022/10/18 11:23:34;;;;;;;9.70;5.03;;;22.40;99.90;;;;;;5013544;28;20439;-65
2022/10/18 11:26:11;;;;;;;13.97;4.63;;;22.40;99.90;;;;;;5017759;28;20431;-65
2022/10/18 11:29:04;;;;;;;6.43;4.33;;;22.20;99.90;;;;;;5013703;28;20472;-65
2022/10/18 11:31:46;;;;;;;10.03;4.43;;;22.20;99.90;;;;;;5015785;28;20529;-64
2022/10/18 11:34:29;;;;;;;5.00;4.13;;;22.20;99.90;;;;;;5012020;28;20444;-64
2022/10/18 11:37:08;;;;;;;5.00;4.50;;;22.10;99.90;;;;;;5017059;28;20822;-65
2022/10/18 11:40:07;;;;;;;12.40;4.50;;;21.90;99.90;;;;;;5014611;28;21082;-64
2022/10/18 11:42:52;;;;;;;5.40;4.50;;;21.90;99.90;;;;;;4981966;28;20528;-65
2022/10/18 11:45:41;;;;;;;9.40;4.40;;;22.00;99.90;;;;;;5018144;28;20416;-66
2022/10/18 11:48:35;;;;;;;6.67;4.17;;;22.60;99.90;;;;;;5018888;28;20745;-65
2022/10/18 11:51:07;;;;;;;5.80;3.60;;;23.20;99.90;;;;;;5013224;28;21192;-64
2022/10/18 11:53:37;;;;;;;7.60;4.10;;;23.70;99.90;;;;;;5000089;28;20972;-66
2022/10/18 11:56:15;;;;;;;4.10;3.70;;;23.90;99.90;;;;;;5005859;28;20960;-65
2022/10/18 11:58:58;;;;;;;6.53;3.63;;;24.70;99.90;;;;;;5012825;28;20415;-64
2022/10/18 12:01:29;;;;;;;6.57;3.90;;;25.60;99.90;;;;;;5013077;28;20550;-66
2022/10/18 12:04:10;;;;;;;5.50;3.67;;;25.80;99.90;;;;;;5016045;28;20474;-64
2022/10/18 12:06:44;;;;;;;5.40;3.60;;;26.20;99.90;;;;;;5015056;28;20435;-65
2022/10/18 12:09:18;;;;;;;4.87;3.80;;;26.70;99.90;;;;;;5016010;28;20514;-65
2022/10/18 12:11:54;;;;;;;6.60;3.50;;;27.10;99.90;;;;;;5016125;28;20870;-64
2022/10/18 12:14:25;;;;;;;4.27;2.97;;;27.00;99.90;;;;;;5018942;28;20423;-66
2022/10/18 12:16:53;;;;;;;3.90;3.20;;;26.80;99.90;;;;;;5023192;28;20751;-65
2022/10/18 12:19:25;;;;;;;4.27;3.20;;;26.70;99.90;;;;;;5022877;28;20428;-65
2022/10/18 12:21:52;;;;;;;4.90;3.40;;;26.30;99.90;;;;;;5025100;28;21107;-65
2022/10/18 12:24:30;;;;;;;4.00;3.30;;;26.00;99.90;;;;;;5025766;28;20845;-68
2022/10/18 12:27:03;;;;;;;2.67;2.47;;;25.60;99.90;;;;;;5016525;28;20868;-68
2022/10/18 12:29:44;;;;;;;3.00;2.70;;;25.70;99.90;;;;;;5019311;28;20465;-66
2022/10/18 12:32:13;;;;;;;6.30;3.73;;;25.70;99.90;;;;;;5014875;28;20458;-65
2022/10/18 12:34:58;;;;;;;3.70;2.80;;;25.60;99.90;;;;;;5024622;28;20450;-66
2022/10/18 12:37:49;;;;;;;3.43;2.70;;;25.10;99.90;;;;;;5024073;28;20929;-69
2022/10/18 12:40:22;;;;;;;3.97;3.07;;;25.00;99.90;;;;;;5022933;28;20496;-66
2022/10/18 12:42:52;;;;;;;5.20;3.90;;;24.90;99.90;;;;;;5018280;28;20975;-66
2022/10/18 12:45:18;;;;;;;4.80;3.30;;;24.90;99.90;;;;;;5020268;28;20534;-67
2022/10/18 12:47:44;;;;;;;3.70;2.57;;;24.80;99.90;;;;;;5022302;28;21515;-66
2022/10/18 12:50:55;;;;;;;2.97;2.40;;;24.40;99.90;;;;;;5022713;28;20216;-65
2022/10/18 12:53:26;;;;;;;3.30;3.00;;;24.20;99.90;;;;;;5003403;28;20290;-66
2022/10/18 12:55:53;;;;;;;3.87;2.77;;;24.20;99.90;;;;;;5023607;28;20471;-64
2022/10/18 12:58:21;;;;;;;3.03;2.73;;;24.30;99.90;;;;;;5021265;28;20865;-64
2022/10/18 13:00:47;;;;;;;4.03;3.50;;;24.20;99.90;;;;;;5026271;28;20998;-65